createdAt,value
2022-11-15T00:02:09.850Z,10.07
2022-11-15T00:04:36.528Z,10.07
2022-11-15T00:07:03.202Z,11.98
2022-11-15T00:09:29.888Z,12.63
2022-11-15T00:11:56.526Z,9.82
2022-11-15T00:14:23.113Z,7.90
2022-11-15T00:16:49.811Z,7.45
2022-11-15T00:19:16.606Z,7.82
2022-11-15T00:21:43.296Z,6.82
2022-11-15T00:24:10.176Z,8.98
2022-11-15T00:26:36.778Z,11.23
2022-11-15T00:29:03.445Z,9.30
2022-11-15T00:31:30.166Z,8.27
2022-11-15T00:33:56.828Z,10.93
2022-11-15T00:36:23.417Z,10.18
2022-11-15T00:38:50.191Z,9.10
2022-11-15T00:41:16.816Z,7.20
2022-11-15T00:43:44.706Z,7.00
2022-11-15T00:46:11.545Z,7.15
2022-11-15T00:48:38.446Z,6.65
2022-11-15T00:51:05.123Z,6.43
2022-11-15T00:53:32.066Z,5.38
2022-11-15T00:55:59.242Z,5.65
2022-11-15T00:58:25.802Z,5.47
2022-11-15T01:00:52.515Z,4.85
2022-11-15T01:03:19.223Z,5.72
2022-11-15T01:05:45.902Z,5.47
2022-11-15T01:08:16.330Z,6.10
2022-11-15T01:10:43.126Z,7.90
2022-11-15T01:13:09.875Z,6.10
2022-11-15T01:15:41.002Z,5.95
2022-11-15T01:18:07.784Z,6.57
2022-11-15T01:20:34.376Z,6.50
2022-11-15T01:23:00.983Z,5.68
2022-11-15T01:25:27.662Z,5.63
2022-11-15T01:27:54.371Z,6.50
2022-11-15T01:30:20.946Z,6.65
2022-11-15T01:32:47.676Z,5.78
2022-11-15T01:35:14.368Z,5.40
2022-11-15T01:37:40.983Z,5.28
2022-11-15T01:40:08.099Z,6.60
2022-11-15T01:42:34.705Z,6.13
2022-11-15T01:45:01.364Z,6.93
2022-11-15T01:47:33.268Z,5.03
2022-11-15T01:50:28.858Z,6.45
2022-11-15T01:52:55.668Z,6.20
2022-11-15T01:55:24.133Z,5.90
2022-11-15T01:57:52.997Z,6.68
2022-11-15T02:00:19.625Z,6.95
2022-11-15T02:02:46.342Z,7.15
2022-11-15T02:05:13.018Z,7.53
2022-11-15T02:07:39.702Z,7.60
2022-11-15T02:10:11.683Z,6.68
2022-11-15T02:12:38.313Z,7.47
2022-11-15T02:15:05.813Z,7.50
2022-11-15T02:18:03.597Z,7.32
2022-11-15T02:20:44.490Z,6.13
2022-11-15T02:23:39.224Z,6.00
2022-11-15T02:26:08.934Z,5.32
2022-11-15T02:28:41.439Z,5.10
2022-11-15T02:31:19.813Z,7.20
2022-11-15T02:34:05.747Z,6.75
2022-11-15T02:36:41.234Z,10.43
2022-11-15T02:39:34.297Z,6.93
2022-11-15T02:42:28.473Z,6.72
2022-11-15T02:44:55.070Z,8.07
2022-11-15T02:47:21.743Z,7.28
2022-11-15T02:49:50.249Z,6.93
2022-11-15T02:52:28.899Z,7.80
2022-11-15T02:54:59.989Z,6.38
2022-11-15T02:58:19.102Z,6.55
2022-11-15T03:00:51.053Z,5.95
2022-11-15T03:03:28.992Z,6.20
2022-11-15T03:06:05.372Z,6.05
2022-11-15T03:08:38.630Z,6.95
2022-11-15T03:11:12.593Z,6.70
2022-11-15T03:13:57.805Z,6.63
2022-11-15T03:16:27.490Z,5.57
2022-11-15T03:19:06.673Z,6.15
2022-11-15T03:21:33.394Z,8.25
2022-11-15T03:24:00.777Z,6.38
2022-11-15T03:26:27.405Z,5.85
2022-11-15T03:28:59.844Z,14.20
2022-11-15T03:31:50.521Z,6.18
2022-11-15T03:34:29.433Z,6.57
2022-11-15T03:36:56.139Z,7.53
2022-11-15T03:39:22.878Z,7.18
2022-11-15T03:41:54.149Z,6.95
2022-11-15T03:45:06.975Z,7.55
2022-11-15T03:47:37.731Z,7.63
2022-11-15T03:50:08.517Z,9.45
2022-11-15T03:52:35.262Z,8.63
2022-11-15T03:55:03.313Z,8.18
2022-11-15T03:57:29.949Z,8.15
2022-11-15T03:59:56.532Z,8.65
2022-11-15T04:02:23.126Z,9.00
2022-11-15T04:04:49.738Z,9.05
2022-11-15T04:07:16.455Z,8.70
2022-11-15T04:10:03.461Z,8.85
2022-11-15T04:12:34.144Z,8.38
2022-11-15T04:15:08.355Z,8.40
2022-11-15T04:17:41.484Z,9.48
2022-11-15T04:20:29.364Z,11.77
2022-11-15T04:23:15.522Z,14.50
2022-11-15T04:25:42.737Z,14.50
2022-11-15T04:28:09.330Z,18.27
2022-11-15T04:30:35.903Z,11.88
2022-11-15T04:33:02.561Z,9.77
2022-11-15T04:35:29.248Z,9.82
2022-11-15T04:37:56.638Z,14.65
2022-11-15T04:40:23.230Z,8.38
2022-11-15T04:42:49.945Z,8.85
2022-11-15T04:45:16.763Z,7.10
2022-11-15T04:47:46.549Z,9.13
2022-11-15T04:50:14.433Z,8.32
2022-11-15T04:52:44.933Z,9.52
2022-11-15T04:55:11.893Z,8.63
2022-11-15T04:57:38.724Z,8.85
2022-11-15T05:00:06.500Z,8.38
2022-11-15T05:02:51.435Z,8.23
2022-11-15T05:05:18.077Z,9.10
2022-11-15T05:07:44.714Z,8.52
2022-11-15T05:10:11.526Z,7.82
2022-11-15T05:12:38.201Z,8.65
2022-11-15T05:15:05.313Z,11.73
2022-11-15T05:17:32.008Z,8.68
2022-11-15T05:19:58.729Z,8.68
2022-11-15T05:22:25.356Z,9.00
2022-11-15T05:24:52.023Z,21.08
2022-11-15T05:27:18.714Z,22.08
2022-11-15T05:29:45.350Z,13.68
2022-11-15T05:32:11.978Z,10.85
2022-11-15T05:34:38.587Z,15.30
2022-11-15T05:37:05.256Z,18.13
2022-11-15T05:39:31.877Z,23.38
2022-11-15T05:42:03.605Z,17.98
2022-11-15T05:44:30.192Z,16.98
2022-11-15T05:46:56.873Z,11.90
2022-11-15T05:49:25.605Z,11.00
2022-11-15T05:51:52.344Z,9.88
2022-11-15T05:54:19.001Z,12.68
2022-11-15T05:56:45.660Z,11.95
2022-11-15T05:59:12.267Z,8.25
2022-11-15T06:01:38.944Z,8.52
2022-11-15T06:04:05.690Z,10.07
2022-11-15T06:06:32.352Z,10.02
2022-11-15T06:08:59.036Z,9.40
2022-11-15T06:11:25.742Z,7.90
2022-11-15T06:13:52.414Z,9.43
2022-11-15T06:16:19.089Z,10.20
2022-11-15T06:18:45.840Z,11.68
2022-11-15T06:21:12.536Z,10.60
2022-11-15T06:23:39.150Z,11.32
2022-11-15T06:26:06.128Z,8.90
2022-11-15T06:28:33.064Z,11.30
2022-11-15T06:31:06.852Z,9.38
2022-11-15T06:33:34.087Z,7.90
2022-11-15T06:36:02.986Z,8.68
2022-11-15T06:38:29.656Z,8.38
2022-11-15T06:40:56.332Z,6.60
2022-11-15T06:43:23.021Z,6.40
2022-11-15T06:45:49.706Z,7.60
2022-11-15T06:48:16.398Z,10.95
2022-11-15T06:50:43.091Z,6.32
2022-11-15T06:53:09.787Z,7.72
2022-11-15T06:55:36.449Z,8.15
2022-11-15T06:58:03.119Z,6.95
2022-11-15T07:00:29.815Z,6.65
2022-11-15T07:02:56.558Z,5.60
2022-11-15T07:05:23.262Z,7.72
2022-11-15T07:07:54.317Z,13.02
2022-11-15T07:10:21.423Z,16.27
2022-11-15T07:12:49.761Z,14.23
2022-11-15T07:15:17.434Z,9.52
2022-11-15T07:17:44.127Z,8.07
2022-11-15T07:20:11.190Z,6.93
2022-11-15T07:22:37.969Z,7.10
2022-11-15T07:25:04.959Z,6.50
2022-11-15T07:27:32.016Z,6.65
2022-11-15T07:29:58.766Z,6.55
2022-11-15T07:32:25.347Z,6.07
2022-11-15T07:34:52.038Z,6.82
2022-11-15T07:37:18.682Z,6.03
2022-11-15T07:39:45.453Z,6.18
2022-11-15T07:42:30.681Z,5.57
2022-11-15T07:44:57.283Z,5.65
2022-11-15T07:47:23.986Z,6.00
2022-11-15T07:49:50.802Z,5.82
2022-11-15T07:52:17.477Z,6.35
2022-11-15T07:54:44.125Z,6.30
2022-11-15T07:57:11.074Z,5.53
2022-11-15T07:59:37.760Z,6.30
2022-11-15T08:02:04.457Z,8.35
2022-11-15T08:04:31.109Z,7.88
2022-11-15T08:06:58.357Z,8.05
2022-11-15T08:09:25.101Z,13.55
2022-11-15T08:11:51.758Z,9.55
2022-11-15T08:14:18.351Z,8.70
2022-11-15T08:16:45.016Z,8.55
2022-11-15T08:19:11.685Z,7.10
2022-11-15T08:21:38.389Z,7.53
2022-11-15T08:24:05.533Z,7.15
2022-11-15T08:26:32.257Z,7.10
2022-11-15T08:28:58.967Z,7.22
2022-11-15T08:31:25.731Z,8.10
2022-11-15T08:33:52.485Z,6.93
2022-11-15T08:36:19.089Z,6.38
2022-11-15T08:38:45.808Z,6.78
2022-11-15T08:41:14.900Z,7.30
2022-11-15T08:43:41.511Z,7.20
2022-11-15T08:46:10.078Z,7.22
2022-11-15T08:48:36.671Z,7.15
2022-11-15T08:51:03.483Z,6.93
2022-11-15T08:53:30.099Z,6.78
2022-11-15T08:55:56.782Z,6.80
2022-11-15T08:58:23.364Z,6.47
2022-11-15T09:00:50.050Z,6.85
2022-11-15T09:03:16.746Z,6.45
2022-11-15T09:05:43.889Z,6.88
2022-11-15T09:08:32.863Z,7.10
2022-11-15T09:10:57.292Z,7.00
2022-11-15T09:13:23.968Z,7.10
2022-11-15T09:15:50.645Z,6.47
2022-11-15T09:18:17.335Z,6.45
2022-11-15T09:20:43.957Z,7.05
2022-11-15T09:23:10.678Z,6.40
2022-11-15T09:25:37.351Z,6.85
2022-11-15T09:30:51.974Z,7.85
2022-11-15T09:33:18.762Z,6.68
2022-11-15T09:35:45.420Z,7.32
2022-11-15T09:38:12.030Z,6.93
2022-11-15T09:40:38.971Z,6.95
2022-11-15T09:43:32.234Z,7.82
2022-11-15T09:46:20.890Z,7.05
2022-11-15T09:48:58.717Z,6.07
2022-11-15T09:51:35.700Z,5.68
2022-11-15T09:56:50.984Z,5.85
2022-11-15T09:59:23.566Z,5.60
2022-11-15T10:01:57.007Z,5.38
2022-11-15T10:04:23.906Z,6.63
2022-11-15T10:07:19.929Z,6.57
2022-11-15T10:10:20.244Z,5.78
2022-11-15T10:12:48.632Z,6.63
2022-11-15T10:15:16.695Z,5.95
2022-11-15T10:18:07.837Z,6.22
2022-11-15T10:20:47.962Z,6.05
2022-11-15T10:23:16.957Z,6.57
2022-11-15T10:25:44.784Z,5.53
2022-11-15T10:28:16.156Z,5.65
2022-11-15T10:30:49.282Z,6.50
2022-11-15T10:33:31.080Z,5.75
2022-11-15T10:36:09.746Z,5.35
2022-11-15T10:38:51.672Z,5.85
2022-11-15T10:41:37.857Z,6.00
2022-11-15T10:44:07.507Z,5.57
2022-11-15T10:46:46.582Z,5.32
2022-11-15T10:49:28.845Z,5.00
2022-11-15T10:52:01.938Z,5.70
2022-11-15T10:54:35.886Z,5.95
2022-11-15T10:57:13.542Z,5.45
2022-11-15T10:59:40.284Z,5.45
2022-11-15T11:02:31.919Z,5.07
2022-11-15T11:04:58.651Z,5.53
2022-11-15T11:07:27.653Z,5.18
2022-11-15T11:10:00.118Z,5.35
2022-11-15T11:12:33.827Z,5.57
2022-11-15T11:15:02.066Z,5.20
2022-11-15T11:17:34.014Z,4.65
2022-11-15T11:20:38.302Z,5.75
2022-11-15T11:23:35.969Z,4.82
2022-11-15T11:26:05.697Z,4.53
2022-11-15T11:29:09.439Z,4.35
2022-11-15T11:32:07.093Z,4.55
2022-11-15T11:34:59.938Z,5.00
2022-11-15T11:37:44.981Z,4.50
2022-11-15T11:40:38.345Z,4.00
2022-11-15T11:43:04.917Z,3.88
2022-11-15T11:45:31.562Z,3.92
2022-11-15T11:48:27.072Z,3.83
2022-11-15T11:50:53.830Z,3.75
2022-11-15T11:53:32.627Z,4.05
2022-11-15T11:56:03.051Z,4.20
2022-11-15T11:58:35.840Z,4.10
2022-11-15T12:01:35.884Z,4.47
2022-11-15T12:04:17.678Z,4.22
2022-11-15T12:06:47.378Z,4.40
2022-11-15T12:09:22.005Z,4.45
2022-11-15T12:12:07.295Z,4.40
2022-11-15T12:14:38.099Z,4.70
2022-11-15T12:17:05.373Z,4.22
2022-11-15T12:19:32.027Z,4.60
2022-11-15T12:22:06.118Z,4.50
2022-11-15T12:24:39.968Z,4.65
2022-11-15T12:27:43.349Z,4.43
2022-11-15T12:30:17.111Z,5.15
2022-11-15T12:32:57.653Z,4.80
2022-11-15T12:35:39.130Z,3.97
2022-11-15T12:38:05.881Z,4.07
2022-11-15T12:40:34.410Z,4.50
2022-11-15T12:43:02.290Z,4.38
2022-11-15T12:45:37.925Z,4.70
2022-11-15T12:48:16.686Z,4.38
2022-11-15T12:50:52.963Z,4.88
2022-11-15T12:53:26.321Z,4.78
2022-11-15T12:56:17.621Z,4.43
2022-11-15T12:58:53.263Z,4.57
2022-11-15T13:01:32.295Z,4.55
2022-11-15T13:04:20.612Z,4.28
2022-11-15T13:06:49.103Z,3.92
2022-11-15T13:09:37.353Z,4.70
2022-11-15T13:12:10.624Z,4.35
2022-11-15T13:14:45.429Z,4.85
2022-11-15T13:17:21.141Z,4.45
2022-11-15T13:19:49.412Z,4.20
2022-11-15T13:22:34.464Z,4.72
2022-11-15T13:25:03.933Z,3.55
2022-11-15T13:27:30.539Z,3.65
2022-11-15T13:29:57.163Z,4.07
2022-11-15T13:32:23.899Z,3.83
2022-11-15T13:34:53.696Z,4.13
2022-11-15T13:37:23.350Z,4.20
2022-11-15T13:39:50.180Z,4.28
2022-11-15T13:42:20.665Z,4.18
2022-11-15T13:44:57.824Z,4.93
2022-11-15T13:47:28.053Z,4.40
2022-11-15T13:49:54.756Z,4.10
2022-11-15T13:52:21.330Z,3.97
2022-11-15T13:54:57.269Z,4.97
2022-11-15T13:57:29.056Z,5.10
2022-11-15T14:00:07.815Z,6.35
2022-11-15T14:02:35.775Z,6.20
2022-11-15T14:05:23.090Z,5.00
2022-11-15T14:07:58.131Z,4.97
2022-11-15T14:10:36.259Z,5.20
2022-11-15T14:13:03.630Z,5.25
2022-11-15T14:15:35.251Z,4.75
2022-11-15T14:18:02.120Z,4.68
2022-11-15T14:20:33.621Z,4.85
2022-11-15T14:23:05.188Z,4.70
2022-11-15T14:25:33.122Z,5.45
2022-11-15T14:28:17.471Z,5.20
2022-11-15T14:30:47.268Z,5.22
2022-11-15T14:33:36.810Z,16.42
2022-11-15T14:36:12.012Z,8.65
2022-11-15T14:38:38.688Z,12.63
2022-11-15T14:41:05.445Z,36.15
2022-11-15T14:43:32.082Z,22.50
2022-11-15T14:45:58.734Z,24.33
2022-11-15T14:48:25.337Z,16.05
2022-11-15T14:50:51.977Z,8.55
2022-11-15T14:53:18.758Z,7.03
2022-11-15T14:55:45.491Z,9.02
2022-11-15T14:58:12.223Z,7.57
2022-11-15T15:00:40.060Z,8.07
2022-11-15T15:03:06.921Z,7.78
2022-11-15T15:05:35.326Z,9.85
2022-11-15T15:08:02.260Z,8.52
2022-11-15T15:10:40.601Z,8.82
2022-11-15T15:13:22.693Z,21.20
2022-11-15T15:15:50.127Z,24.70
2022-11-15T15:18:16.940Z,14.60
2022-11-15T15:20:44.412Z,23.48
2022-11-15T15:23:18.633Z,11.88
2022-11-15T15:28:13.797Z,7.95
2022-11-15T15:30:40.563Z,12.10
2022-11-15T15:33:07.294Z,9.75
2022-11-15T15:35:34.944Z,10.38
2022-11-15T15:38:02.035Z,9.70
2022-11-15T15:40:30.163Z,8.45
2022-11-15T15:42:56.805Z,10.68
2022-11-15T15:45:23.496Z,11.32
2022-11-15T15:47:53.224Z,30.98
2022-11-15T15:50:26.433Z,14.07
2022-11-15T15:52:54.212Z,13.50
2022-11-15T15:55:21.004Z,12.27
2022-11-15T15:57:48.056Z,11.02
2022-11-15T16:00:15.046Z,11.63
2022-11-15T16:02:41.754Z,12.52
2022-11-15T16:05:09.082Z,9.80
2022-11-15T16:07:35.908Z,9.40
2022-11-15T16:10:04.167Z,9.77
2022-11-15T16:12:34.818Z,9.90
2022-11-15T16:15:01.963Z,13.60
2022-11-15T16:17:34.263Z,20.85
2022-11-15T16:20:01.256Z,16.20
2022-11-15T16:22:29.635Z,17.35
2022-11-15T16:24:56.814Z,27.92
2022-11-15T16:27:23.558Z,21.67
2022-11-15T16:29:50.363Z,26.23
2022-11-15T16:32:17.342Z,25.65
2022-11-15T16:34:48.707Z,25.50
2022-11-15T16:37:24.731Z,32.55
2022-11-15T16:39:51.423Z,25.85
2022-11-15T16:42:18.121Z,20.85
2022-11-15T16:44:44.989Z,18.90
2022-11-15T16:47:16.939Z,16.25
2022-11-15T16:49:43.928Z,16.25
2022-11-15T16:52:10.600Z,16.13
2022-11-15T16:54:37.231Z,15.90
2022-11-15T16:57:03.952Z,17.38
2022-11-15T16:59:38.060Z,19.67
2022-11-15T17:02:05.762Z,19.88
2022-11-15T17:04:33.899Z,22.08
2022-11-15T17:07:00.611Z,23.83
2022-11-15T17:09:27.314Z,20.77
2022-11-15T17:11:54.100Z,23.60
2022-11-15T17:14:20.743Z,23.75
2022-11-15T17:16:47.659Z,23.25
2022-11-15T17:19:18.420Z,23.02
2022-11-15T17:21:45.293Z,20.38
2022-11-15T17:24:12.062Z,20.88
2022-11-15T17:26:40.831Z,19.33
2022-11-15T17:29:08.144Z,23.02
2022-11-15T17:31:35.828Z,21.10
2022-11-15T17:34:02.713Z,19.52
2022-11-15T17:36:29.371Z,18.75
2022-11-15T17:38:59.473Z,22.65
2022-11-15T17:41:27.329Z,25.17
2022-11-15T17:43:54.015Z,38.95
2022-11-15T17:46:21.140Z,35.65
2022-11-15T17:48:48.376Z,21.13
2022-11-15T17:51:16.648Z,23.40
2022-11-15T17:53:45.037Z,18.23
2022-11-15T17:56:13.152Z,20.08
2022-11-15T17:58:39.892Z,19.50
2022-11-15T18:01:16.677Z,18.40
2022-11-15T18:03:43.445Z,14.63
2022-11-15T18:06:10.358Z,15.63
2022-11-15T18:08:40.180Z,21.92
2022-11-15T18:11:08.014Z,23.15
2022-11-15T18:13:36.200Z,21.85
2022-11-15T18:16:04.586Z,20.60
2022-11-15T18:18:34.787Z,29.13
2022-11-15T18:21:20.178Z,22.35
2022-11-15T18:23:46.894Z,19.73
2022-11-15T18:26:15.046Z,21.75
2022-11-15T18:28:43.074Z,26.30
2022-11-15T18:31:19.865Z,30.42
2022-11-15T18:33:46.613Z,28.50
2022-11-15T18:36:15.075Z,32.05
2022-11-15T18:38:41.741Z,35.33
2022-11-15T18:41:10.597Z,37.05
2022-11-15T18:43:37.879Z,35.47
2022-11-15T18:46:09.152Z,32.80
2022-11-15T18:48:37.300Z,31.27
2022-11-15T18:51:05.459Z,25.42
2022-11-15T18:53:32.746Z,25.75
2022-11-15T18:56:16.798Z,29.10
2022-11-15T18:58:45.156Z,30.17
2022-11-15T19:01:14.184Z,27.60
2022-11-15T19:03:43.118Z,32.67
2022-11-15T19:06:16.663Z,36.58
2022-11-15T19:08:44.581Z,35.13
2022-11-15T19:11:12.977Z,33.40
2022-11-15T19:13:39.775Z,35.28
2022-11-15T19:16:07.058Z,31.52
2022-11-15T19:18:33.814Z,35.67
2022-11-15T19:21:04.680Z,45.92
2022-11-15T19:23:38.203Z,27.48
2022-11-15T19:26:05.851Z,25.88
2022-11-15T19:28:32.872Z,29.85
2022-11-15T19:31:13.049Z,28.85
2022-11-15T19:33:40.710Z,29.25
2022-11-15T19:36:13.457Z,24.90
2022-11-15T19:38:40.381Z,27.25
2022-11-15T19:41:08.646Z,28.73
2022-11-15T19:43:35.690Z,33.95
2022-11-15T19:46:03.749Z,32.45
2022-11-15T19:48:31.655Z,29.60
2022-11-15T19:51:05.515Z,28.00
2022-11-15T19:53:35.342Z,31.83
2022-11-15T19:56:04.531Z,32.33
2022-11-15T19:58:31.347Z,31.52
2022-11-15T20:01:03.092Z,30.65
2022-11-15T20:03:31.017Z,35.58
2022-11-15T20:06:06.099Z,33.00
2022-11-15T20:08:33.220Z,32.70
2022-11-15T20:11:00.250Z,27.65
2022-11-15T20:13:27.154Z,25.15
2022-11-15T20:15:54.118Z,24.98
2022-11-15T20:18:21.415Z,22.55
2022-11-15T20:20:48.150Z,20.98
2022-11-15T20:23:14.782Z,20.15
2022-11-15T20:25:45.043Z,20.98
2022-11-15T20:28:15.771Z,24.52
2022-11-15T20:30:46.021Z,20.40
2022-11-15T20:33:13.875Z,16.20
2022-11-15T20:35:40.937Z,17.00
2022-11-15T20:38:08.093Z,15.35
2022-11-15T20:40:34.790Z,16.23
2022-11-15T20:43:01.377Z,15.75
2022-11-15T20:45:28.031Z,14.02
2022-11-15T20:47:55.846Z,14.35
2022-11-15T20:50:41.635Z,13.80
2022-11-15T20:53:09.162Z,14.85
2022-11-15T20:55:49.475Z,15.05
2022-11-15T20:58:16.792Z,13.98
2022-11-15T21:00:44.853Z,12.27
2022-11-15T21:03:13.489Z,12.38
2022-11-15T21:05:41.648Z,11.65
2022-11-15T21:08:08.405Z,11.07
2022-11-15T21:10:53.533Z,11.07
2022-11-15T21:13:20.361Z,12.95
2022-11-15T21:15:47.218Z,14.52
2022-11-15T21:18:14.160Z,11.35
2022-11-15T21:20:41.438Z,9.48
2022-11-15T21:23:08.200Z,14.50
2022-11-15T21:25:34.917Z,10.43
2022-11-15T21:28:01.640Z,8.65
2022-11-15T21:30:28.283Z,8.48
2022-11-15T21:32:55.009Z,8.45
2022-11-15T21:35:22.612Z,8.30
2022-11-15T21:37:54.974Z,14.30
2022-11-15T21:42:49.765Z,16.88
2022-11-15T21:45:16.577Z,13.27
2022-11-15T21:47:45.990Z,9.38
2022-11-15T21:50:13.350Z,8.95
2022-11-15T21:52:40.824Z,11.55
2022-11-15T21:55:08.434Z,10.88
2022-11-15T21:57:35.080Z,11.85
2022-11-15T22:00:20.683Z,11.48
2022-11-15T22:02:47.264Z,12.30
2022-11-15T22:05:13.917Z,11.48
2022-11-15T22:07:40.621Z,11.90
2022-11-15T22:10:07.612Z,10.02
2022-11-15T22:12:34.226Z,10.20
2022-11-15T22:15:00.888Z,9.52
2022-11-15T22:17:47.503Z,10.88
2022-11-15T22:20:37.716Z,9.43
2022-11-15T22:23:02.820Z,9.80
2022-11-15T22:25:29.569Z,9.18
2022-11-15T22:27:56.290Z,8.60
2022-11-15T22:30:22.993Z,9.13
2022-11-15T22:32:49.769Z,9.75
2022-11-15T22:35:16.574Z,8.10
2022-11-15T22:37:43.328Z,9.68
2022-11-15T22:40:10.408Z,9.27
2022-11-15T22:42:37.064Z,9.68
2022-11-15T22:45:04.250Z,8.75
2022-11-15T22:47:31.071Z,8.70
2022-11-15T22:49:58.009Z,8.70
2022-11-15T22:52:24.664Z,8.52
2022-11-15T22:54:51.452Z,9.13
2022-11-15T22:57:18.161Z,8.88
2022-11-15T22:59:45.009Z,8.82
2022-11-15T23:02:11.741Z,10.13
2022-11-15T23:04:38.411Z,9.75
2022-11-15T23:07:05.102Z,9.30
2022-11-15T23:09:31.889Z,7.70
2022-11-15T23:12:17.116Z,7.40
2022-11-15T23:14:43.773Z,9.52
2022-11-15T23:17:10.477Z,11.65
2022-11-15T23:19:37.125Z,9.40
2022-11-15T23:22:22.389Z,10.82
2022-11-15T23:24:49.066Z,8.40
2022-11-15T23:27:19.851Z,7.65
2022-11-15T23:30:05.771Z,8.27
2022-11-15T23:32:50.875Z,7.35
2022-11-15T23:35:17.583Z,9.82
2022-11-15T23:37:44.257Z,8.60
2022-11-15T23:40:11.671Z,9.05
2022-11-15T23:42:38.253Z,7.68
2022-11-15T23:45:05.696Z,8.48
2022-11-15T23:47:32.407Z,8.07
2022-11-15T23:49:59.067Z,8.07
2022-11-15T23:52:25.710Z,6.63
2022-11-15T23:54:52.488Z,6.88
2022-11-15T23:57:19.237Z,7.97
2022-11-15T23:59:45.882Z,7.95
